Terminal Aerodrome Forecast
Issued by NWS

Home | Current Version | Previous Version | Text Only | Print | Product List | Glossary On
Versions: 1 2 3 4 5 6 7 8 9 10 11 12 13 14
000
FTUS44 KCRP 252300
TAFALI
TAF
KALI 252326Z 2600/2624 13007KT P6SM FEW070 BKN090 OVC110
     FM261100 16004KT P6SM SCT022
     FM261400 18013G17KT P6SM SCT028
     FM262100 14019G24KT P6SM SCT030=

USA.gov is the U.S. government's official web portal to all federal, state and local government web resources and services.